createdAt,value
2023-05-11T00:00:37.519Z,14.10
2023-05-11T00:03:04.602Z,10.80
2023-05-11T00:05:31.676Z,7.80
2023-05-11T00:07:58.739Z,10.70
2023-05-11T00:10:25.744Z,11.70
2023-05-11T00:12:52.511Z,11.80
2023-05-11T00:15:19.802Z,8.20
2023-05-11T00:17:47.112Z,9.30
2023-05-11T00:20:14.108Z,13.70
2023-05-11T00:22:41.941Z,11.50
2023-05-11T00:25:10.451Z,8.70
2023-05-11T00:27:37.491Z,8.50
2023-05-11T00:30:05.296Z,7.90
2023-05-11T00:32:32.541Z,7.20
2023-05-11T00:34:59.895Z,8.90
2023-05-11T00:37:26.798Z,9.50
2023-05-11T00:39:53.701Z,8.50
2023-05-11T00:42:21.049Z,7.10
2023-05-11T00:44:47.982Z,12.20
2023-05-11T00:47:14.908Z,7.20
2023-05-11T00:49:41.637Z,7.90
2023-05-11T00:52:08.613Z,6.60
2023-05-11T00:54:35.772Z,6.00
2023-05-11T00:57:03.436Z,5.90
2023-05-11T00:59:30.170Z,8.50
2023-05-11T01:01:56.975Z,9.30
2023-05-11T01:04:24.034Z,5.70
2023-05-11T01:06:53.759Z,11.60
2023-05-11T01:09:23.413Z,11.40
2023-05-11T01:11:56.701Z,9.90
2023-05-11T01:14:30.033Z,6.20
2023-05-11T01:16:59.519Z,7.30
2023-05-11T01:19:58.811Z,5.60
2023-05-11T01:22:48.582Z,3.50
2023-05-11T01:25:23.824Z,4.60
2023-05-11T01:28:24.614Z,6.80
2023-05-11T01:30:54.648Z,8.70
2023-05-11T01:33:25.814Z,8.40
2023-05-11T01:35:53.425Z,5.60
2023-05-11T01:38:21.460Z,6.10
2023-05-11T01:40:52.890Z,4.30
2023-05-11T01:43:21.637Z,8.50
2023-05-11T01:45:51.274Z,8.50
2023-05-11T01:48:21.009Z,9.90
2023-05-11T01:50:47.905Z,6.70
2023-05-11T01:53:15.457Z,7.10
2023-05-11T01:55:42.421Z,11.00
2023-05-11T02:00:36.979Z,10.30
2023-05-11T02:03:05.212Z,6.00
2023-05-11T02:05:33.532Z,7.00
2023-05-11T02:08:02.465Z,7.20
2023-05-11T02:10:32.256Z,2.70
2023-05-11T02:12:59.219Z,8.70
2023-05-11T02:15:26.054Z,9.30
2023-05-11T02:17:53.042Z,5.60
2023-05-11T02:20:20.494Z,5.30
2023-05-11T02:22:47.802Z,7.10
2023-05-11T02:25:14.756Z,17.30
2023-05-11T02:27:42.050Z,4.90
2023-05-11T02:30:09.460Z,12.20
2023-05-11T02:32:38.384Z,6.10
2023-05-11T02:35:09.134Z,3.50
2023-05-11T02:37:41.022Z,6.00
2023-05-11T02:40:12.904Z,8.40
2023-05-11T02:42:40.202Z,9.70
2023-05-11T02:45:07.987Z,8.30
2023-05-11T02:50:24.967Z,3.00
2023-05-11T02:52:54.906Z,7.90
2023-05-11T02:55:23.342Z,8.20
2023-05-11T03:01:06.060Z,8.80
2023-05-11T03:03:33.548Z,6.90
2023-05-11T03:06:00.676Z,10.20
2023-05-11T03:08:29.264Z,20.90
2023-05-11T03:10:56.680Z,7.80
2023-05-11T03:13:24.192Z,9.00
2023-05-11T03:15:53.177Z,11.30
2023-05-11T03:18:21.282Z,12.70
2023-05-11T03:20:48.203Z,11.90
2023-05-11T03:23:15.068Z,9.30
2023-05-11T03:25:45.534Z,9.50
2023-05-11T03:28:12.611Z,10.40
2023-05-11T03:30:40.664Z,13.10
2023-05-11T03:33:07.688Z,13.30
2023-05-11T03:35:34.828Z,15.00
2023-05-11T03:38:02.347Z,13.60
2023-05-11T03:40:31.248Z,9.30
2023-05-11T03:42:59.617Z,10.80
2023-05-11T03:45:27.967Z,12.90
2023-05-11T03:47:55.377Z,15.90
2023-05-11T03:50:25.177Z,14.90
2023-05-11T03:52:52.271Z,14.60
2023-05-11T03:55:19.738Z,18.20
2023-05-11T03:57:47.312Z,14.10
2023-05-11T04:00:14.666Z,12.60
2023-05-11T04:02:44.653Z,9.40
2023-05-11T04:05:12.321Z,15.00
2023-05-11T04:07:39.899Z,14.10
2023-05-11T04:10:07.678Z,13.70
2023-05-11T04:12:34.824Z,17.80
2023-05-11T04:15:01.696Z,8.00
2023-05-11T04:17:28.765Z,11.20
2023-05-11T04:19:55.640Z,14.50
2023-05-11T04:22:23.439Z,11.60
2023-05-11T04:24:50.552Z,9.70
2023-05-11T04:27:18.463Z,11.60
2023-05-11T04:29:45.681Z,7.50
2023-05-11T04:32:15.005Z,11.00
2023-05-11T04:34:43.503Z,8.10
2023-05-11T04:37:11.136Z,10.40
2023-05-11T04:39:39.002Z,7.20
2023-05-11T04:42:06.289Z,11.80
2023-05-11T04:44:34.304Z,6.40
2023-05-11T04:47:01.408Z,7.90
2023-05-11T04:49:28.699Z,5.00
2023-05-11T04:51:55.909Z,6.80
2023-05-11T04:54:23.290Z,6.90
2023-05-11T04:56:50.118Z,4.00
2023-05-11T04:59:17.299Z,5.60
2023-05-11T05:01:44.535Z,8.20
2023-05-11T05:04:11.487Z,3.50
2023-05-11T05:06:39.046Z,6.70
2023-05-11T05:09:06.476Z,6.20
2023-05-11T05:11:33.891Z,5.10
2023-05-11T05:14:01.424Z,5.50
2023-05-11T05:16:30.880Z,4.40
2023-05-11T05:18:59.756Z,5.60
2023-05-11T05:21:27.389Z,5.00
2023-05-11T05:25:05.680Z,3.10
2023-05-11T05:27:34.731Z,5.00
2023-05-11T05:30:04.036Z,6.80
2023-05-11T05:32:32.329Z,6.70
2023-05-11T05:34:59.610Z,8.90
2023-05-11T05:37:28.863Z,4.80
2023-05-11T05:39:56.943Z,5.20
2023-05-11T05:42:24.202Z,4.60
2023-05-11T05:44:51.847Z,6.60
2023-05-11T05:47:19.547Z,5.20
2023-05-11T05:49:47.741Z,4.30
2023-05-11T05:52:15.889Z,4.70
2023-05-11T05:54:43.601Z,14.90
2023-05-11T05:57:12.795Z,4.10
2023-05-11T05:59:41.741Z,5.30
2023-05-11T06:02:09.446Z,3.90
2023-05-11T06:04:37.309Z,7.20
2023-05-11T06:07:06.123Z,4.10
2023-05-11T06:09:37.369Z,3.60
2023-05-11T06:12:09.828Z,5.20
2023-05-11T06:14:41.281Z,7.70
2023-05-11T06:17:08.957Z,4.10
2023-05-11T06:19:37.440Z,2.80
2023-05-11T06:22:07.593Z,3.70
2023-05-11T06:24:35.454Z,3.20
2023-05-11T06:27:03.268Z,5.10
2023-05-11T06:30:39.597Z,2.80
2023-05-11T06:33:50.227Z,3.80
2023-05-11T06:36:26.645Z,3.10
2023-05-11T06:38:54.201Z,6.20
2023-05-11T06:41:22.185Z,4.70
2023-05-11T06:43:50.945Z,3.00
2023-05-11T17:41:35.842Z,29.60
2023-05-11T17:44:05.502Z,20.20
2023-05-11T17:46:34.116Z,26.90
2023-05-11T17:49:03.192Z,34.70
2023-05-11T17:51:31.037Z,47.70
2023-05-11T17:54:00.218Z,33.80
2023-05-11T17:56:27.466Z,28.80
2023-05-11T17:58:54.978Z,29.70
2023-05-11T18:01:22.365Z,27.50
2023-05-11T18:03:50.029Z,35.60
2023-05-11T18:06:18.656Z,35.30
2023-05-11T18:08:46.324Z,49.40
2023-05-11T18:11:14.254Z,71.70
2023-05-11T18:13:41.644Z,117.80
2023-05-11T18:16:09.132Z,157.80
2023-05-11T18:18:37.087Z,143.70
2023-05-11T18:21:06.144Z,116.40
2023-05-11T18:23:33.731Z,94.40
2023-05-11T18:26:01.544Z,104.20
2023-05-11T18:28:29.624Z,93.70
2023-05-11T18:30:56.958Z,89.60
2023-05-11T18:33:24.439Z,83.90
2023-05-11T18:35:52.636Z,81.40
2023-05-11T18:38:19.799Z,73.60
2023-05-11T18:40:47.173Z,65.50
2023-05-11T18:43:14.681Z,67.60
2023-05-11T18:45:45.223Z,68.40
2023-05-11T18:48:14.089Z,54.30
2023-05-11T18:50:41.934Z,63.40
2023-05-11T18:53:09.172Z,54.30
2023-05-11T18:55:48.894Z,58.00
2023-05-11T18:58:20.053Z,56.40
2023-05-11T19:00:51.240Z,55.80
2023-05-11T19:03:20.478Z,64.10
2023-05-11T19:05:48.480Z,44.60
2023-05-11T19:08:15.969Z,50.70
2023-05-11T19:10:44.799Z,56.30
2023-05-11T19:13:12.730Z,54.70
2023-05-11T19:15:39.810Z,46.40
2023-05-11T19:18:06.590Z,55.70
2023-05-11T19:20:33.878Z,47.60
2023-05-11T19:23:00.767Z,53.70
2023-05-11T19:25:27.897Z,51.20
2023-05-11T19:27:56.821Z,52.60
2023-05-11T19:30:24.170Z,44.40
2023-05-11T19:32:51.220Z,45.70
2023-05-11T19:35:18.651Z,51.60
2023-05-11T19:37:47.587Z,43.40
2023-05-11T19:42:46.156Z,56.40
2023-05-11T19:45:16.425Z,49.60
2023-05-11T19:47:44.182Z,58.40
2023-05-11T19:50:11.898Z,42.80
2023-05-11T19:52:38.806Z,54.10
2023-05-11T19:55:06.028Z,48.70
2023-05-11T19:57:36.691Z,52.10
2023-05-11T20:00:06.645Z,42.30
2023-05-11T20:02:34.343Z,48.50
2023-05-11T20:05:04.047Z,74.40
2023-05-11T20:07:32.366Z,37.60
2023-05-11T20:09:59.317Z,42.60
2023-05-11T20:12:26.676Z,42.40
2023-05-11T20:14:53.828Z,38.60
2023-05-11T20:17:21.189Z,46.00
2023-05-11T20:19:48.046Z,52.20
2023-05-11T20:22:14.957Z,53.00
2023-05-11T20:24:41.840Z,43.80
2023-05-11T20:27:10.503Z,44.40
2023-05-11T20:29:39.760Z,48.70
2023-05-11T20:32:07.097Z,45.60
2023-05-11T20:34:35.030Z,40.50
2023-05-11T20:37:01.943Z,41.80
2023-05-11T20:39:29.107Z,43.50
2023-05-11T20:41:58.136Z,42.10
2023-05-11T20:44:25.387Z,35.70
2023-05-11T20:46:52.397Z,30.20
2023-05-11T20:49:34.540Z,36.10
2023-05-11T20:52:05.362Z,29.40
2023-05-11T20:54:34.372Z,35.90
2023-05-11T20:57:02.239Z,30.20
2023-05-11T21:02:01.253Z,33.60
2023-05-11T21:04:30.771Z,33.70
2023-05-11T21:06:57.769Z,40.10
2023-05-11T21:09:24.814Z,28.10
2023-05-11T21:11:51.634Z,30.40
2023-05-11T21:14:18.621Z,25.60
2023-05-11T21:16:45.545Z,26.30
2023-05-11T21:19:12.411Z,31.80
2023-05-11T21:21:39.140Z,26.20
2023-05-11T21:24:06.211Z,22.40
2023-05-11T21:26:33.516Z,28.30
2023-05-11T21:29:00.325Z,25.10
2023-05-11T21:31:28.084Z,25.50
2023-05-11T21:33:54.938Z,27.10
2023-05-11T21:36:22.086Z,25.80
2023-05-11T21:38:49.383Z,24.10
2023-05-11T21:41:16.341Z,31.50
2023-05-11T21:43:43.094Z,25.00
2023-05-11T21:46:10.066Z,26.00
2023-05-11T21:48:37.107Z,28.40
2023-05-11T21:51:04.099Z,25.20
2023-05-11T21:53:31.057Z,33.70
2023-05-11T21:55:57.757Z,31.60
2023-05-11T21:58:24.469Z,35.50
2023-05-11T22:00:51.554Z,44.00
2023-05-11T22:03:19.024Z,44.40
2023-05-11T22:05:46.490Z,39.70
2023-05-11T22:08:15.280Z,46.40
2023-05-11T22:10:42.734Z,39.50
2023-05-11T22:13:09.719Z,39.20
2023-05-11T22:15:36.822Z,40.30
2023-05-11T22:18:04.485Z,33.60
2023-05-11T22:20:31.679Z,29.60
2023-05-11T22:22:58.755Z,28.00
2023-05-11T22:25:25.978Z,27.40
2023-05-11T22:27:52.685Z,28.60
2023-05-11T22:30:19.873Z,28.00
2023-05-11T22:32:47.487Z,24.00
2023-05-11T22:35:14.420Z,25.90
2023-05-11T22:37:41.309Z,29.50
2023-05-11T22:40:09.026Z,31.40
2023-05-11T22:42:35.794Z,28.10
2023-05-11T22:45:02.704Z,22.10
2023-05-11T22:47:30.103Z,25.80
2023-05-11T22:49:56.977Z,17.40
2023-05-11T22:52:23.771Z,18.40
2023-05-11T22:54:54.529Z,22.10
2023-05-11T22:57:23.428Z,18.40
2023-05-11T22:59:50.294Z,20.50
2023-05-11T23:02:17.140Z,21.00
2023-05-11T23:04:47.923Z,21.40
2023-05-11T23:07:14.753Z,21.20
2023-05-11T23:09:41.466Z,18.30
2023-05-11T23:12:08.319Z,19.60
2023-05-11T23:14:35.900Z,13.40
2023-05-11T23:17:02.630Z,11.90
2023-05-11T23:19:29.676Z,17.00
2023-05-11T23:21:56.666Z,17.40
2023-05-11T23:24:23.422Z,20.10
2023-05-11T23:26:50.236Z,15.00
2023-05-11T23:29:17.058Z,12.80
2023-05-11T23:31:44.020Z,14.00
2023-05-11T23:34:10.763Z,17.00
2023-05-11T23:36:37.611Z,14.30
2023-05-11T23:39:04.895Z,16.80
2023-05-11T23:41:32.130Z,12.50
2023-05-11T23:44:00.141Z,18.20
2023-05-11T23:46:26.848Z,11.70
2023-05-11T23:48:54.519Z,14.40
2023-05-11T23:51:21.481Z,19.50
2023-05-11T23:53:48.273Z,16.70
2023-05-11T23:56:15.137Z,10.30
2023-05-11T23:58:45.132Z,12.50
